sensor_id;sensor_type;location;lat;lon;timestamp;temperature;humidity
8095;DHT22;4090;49.270;8.696;2022-07-11T00:02:22;22.40;94.00
8095;DHT22;4090;49.270;8.696;2022-07-11T00:05:05;22.30;94.10
8095;DHT22;4090;49.270;8.696;2022-07-11T00:07:47;22.30;93.90
8095;DHT22;4090;49.270;8.696;2022-07-11T00:10:29;22.30;94.10
8095;DHT22;4090;49.270;8.696;2022-07-11T00:13:12;22.30;94.20
8095;DHT22;4090;49.270;8.696;2022-07-11T00:15:54;22.30;94.70
8095;DHT22;4090;49.270;8.696;2022-07-11T00:18:36;22.30;94.30
8095;DHT22;4090;49.270;8.696;2022-07-11T00:21:17;22.30;94.50
8095;DHT22;4090;49.270;8.696;2022-07-11T00:23:59;22.30;95.00
8095;DHT22;4090;49.270;8.696;2022-07-11T00:26:41;22.30;94.80
8095;DHT22;4090;49.270;8.696;2022-07-11T00:29:25;22.30;94.70
8095;DHT22;4090;49.270;8.696;2022-07-11T00:32:07;22.30;94.80
8095;DHT22;4090;49.270;8.696;2022-07-11T00:34:49;22.20;95.00
8095;DHT22;4090;49.270;8.696;2022-07-11T00:37:32;22.20;95.00
8095;DHT22;4090;49.270;8.696;2022-07-11T00:40:14;22.20;94.90
8095;DHT22;4090;49.270;8.696;2022-07-11T00:42:55;22.20;95.00
8095;DHT22;4090;49.270;8.696;2022-07-11T00:45:39;22.20;95.30
8095;DHT22;4090;49.270;8.696;2022-07-11T00:48:21;22.20;95.30
8095;DHT22;4090;49.270;8.696;2022-07-11T00:51:03;22.20;95.20
8095;DHT22;4090;49.270;8.696;2022-07-11T00:53:46;22.20;95.30
8095;DHT22;4090;49.270;8.696;2022-07-11T00:56:30;22.20;95.50
8095;DHT22;4090;49.270;8.696;2022-07-11T00:59:12;22.20;95.70
8095;DHT22;4090;49.270;8.696;2022-07-11T01:01:56;22.20;95.70
8095;DHT22;4090;49.270;8.696;2022-07-11T01:04:38;22.10;95.90
8095;DHT22;4090;49.270;8.696;2022-07-11T01:07:20;22.10;96.50
8095;DHT22;4090;49.270;8.696;2022-07-11T01:10:02;22.10;96.00
8095;DHT22;4090;49.270;8.696;2022-07-11T01:12:44;22.10;95.90
8095;DHT22;4090;49.270;8.696;2022-07-11T01:15:27;22.10;96.20
8095;DHT22;4090;49.270;8.696;2022-07-11T01:18:10;22.10;96.30
8095;DHT22;4090;49.270;8.696;2022-07-11T01:20:52;22.10;96.30
8095;DHT22;4090;49.270;8.696;2022-07-11T01:23:35;22.10;96.30
8095;DHT22;4090;49.270;8.696;2022-07-11T01:26:19;22.00;96.50
8095;DHT22;4090;49.270;8.696;2022-07-11T01:29:05;22.00;96.30
8095;DHT22;4090;49.270;8.696;2022-07-11T01:31:47;22.00;96.30
8095;DHT22;4090;49.270;8.696;2022-07-11T01:34:29;21.90;96.30
8095;DHT22;4090;49.270;8.696;2022-07-11T01:37:11;21.90;96.30
8095;DHT22;4090;49.270;8.696;2022-07-11T01:39:54;21.90;96.30
8095;DHT22;4090;49.270;8.696;2022-07-11T01:42:36;21.90;96.40
8095;DHT22;4090;49.270;8.696;2022-07-11T01:45:22;21.80;96.60
8095;DHT22;4090;49.270;8.696;2022-07-11T01:48:05;21.80;96.80
8095;DHT22;4090;49.270;8.696;2022-07-11T01:50:47;21.80;96.90
8095;DHT22;4090;49.270;8.696;2022-07-11T01:53:30;21.70;96.80
8095;DHT22;4090;49.270;8.696;2022-07-11T01:56:13;21.60;97.20
8095;DHT22;4090;49.270;8.696;2022-07-11T01:58:55;21.60;97.40
8095;DHT22;4090;49.270;8.696;2022-07-11T02:01:36;21.60;97.50
8095;DHT22;4090;49.270;8.696;2022-07-11T02:04:18;21.60;97.50
8095;DHT22;4090;49.270;8.696;2022-07-11T02:07:01;21.60;97.70
8095;DHT22;4090;49.270;8.696;2022-07-11T02:09:43;21.60;97.70
8095;DHT22;4090;49.270;8.696;2022-07-11T02:12:26;21.60;97.80
8095;DHT22;4090;49.270;8.696;2022-07-11T02:15:08;21.60;97.80
8095;DHT22;4090;49.270;8.696;2022-07-11T02:17:50;21.60;98.30
8095;DHT22;4090;49.270;8.696;2022-07-11T02:20:33;21.60;98.20
8095;DHT22;4090;49.270;8.696;2022-07-11T02:23:15;21.60;98.30
8095;DHT22;4090;49.270;8.696;2022-07-11T02:25:57;21.60;98.40
8095;DHT22;4090;49.270;8.696;2022-07-11T02:28:41;21.60;98.50
8095;DHT22;4090;49.270;8.696;2022-07-11T02:31:23;21.60;98.40
8095;DHT22;4090;49.270;8.696;2022-07-11T02:34:05;21.50;98.50
8095;DHT22;4090;49.270;8.696;2022-07-11T02:36:47;21.50;98.70
8095;DHT22;4090;49.270;8.696;2022-07-11T02:39:28;21.50;99.10
8095;DHT22;4090;49.270;8.696;2022-07-11T02:42:10;21.50;99.10
8095;DHT22;4090;49.270;8.696;2022-07-11T02:44:53;21.50;99.30
8095;DHT22;4090;49.270;8.696;2022-07-11T02:47:36;21.50;99.00
8095;DHT22;4090;49.270;8.696;2022-07-11T02:50:19;21.40;99.40
8095;DHT22;4090;49.270;8.696;2022-07-11T02:53:01;21.40;99.30
8095;DHT22;4090;49.270;8.696;2022-07-11T02:55:43;21.40;99.50
8095;DHT22;4090;49.270;8.696;2022-07-11T02:58:26;21.40;99.50
8095;DHT22;4090;49.270;8.696;2022-07-11T03:01:09;21.40;99.50
8095;DHT22;4090;49.270;8.696;2022-07-11T03:03:51;21.40;99.50
8095;DHT22;4090;49.270;8.696;2022-07-11T03:06:33;21.40;99.60
8095;DHT22;4090;49.270;8.696;2022-07-11T03:09:15;21.30;99.50
8095;DHT22;4090;49.270;8.696;2022-07-11T03:11:57;21.30;99.50
8095;DHT22;4090;49.270;8.696;2022-07-11T03:14:38;21.30;99.60
8095;DHT22;4090;49.270;8.696;2022-07-11T03:17:22;21.20;99.80
8095;DHT22;4090;49.270;8.696;2022-07-11T03:20:05;21.20;99.90
8095;DHT22;4090;49.270;8.696;2022-07-11T03:22:47;21.30;99.90
8095;DHT22;4090;49.270;8.696;2022-07-11T03:25:30;21.30;99.90
8095;DHT22;4090;49.270;8.696;2022-07-11T03:28:12;21.20;99.90
8095;DHT22;4090;49.270;8.696;2022-07-11T03:30:54;21.20;99.90
8095;DHT22;4090;49.270;8.696;2022-07-11T03:33:37;21.20;99.90
8095;DHT22;4090;49.270;8.696;2022-07-11T03:36:19;21.20;99.90
8095;DHT22;4090;49.270;8.696;2022-07-11T03:39:01;21.20;99.90
8095;DHT22;4090;49.270;8.696;2022-07-11T03:41:43;21.20;99.90
8095;DHT22;4090;49.270;8.696;2022-07-11T03:44:25;21.20;99.90
8095;DHT22;4090;49.270;8.696;2022-07-11T03:47:07;21.10;99.90
8095;DHT22;4090;49.270;8.696;2022-07-11T03:49:50;21.10;99.90
8095;DHT22;4090;49.270;8.696;2022-07-11T03:52:32;21.10;99.90
8095;DHT22;4090;49.270;8.696;2022-07-11T03:55:14;21.10;99.90
8095;DHT22;4090;49.270;8.696;2022-07-11T03:57:56;21.10;99.90
8095;DHT22;4090;49.270;8.696;2022-07-11T04:00:38;21.10;99.90
8095;DHT22;4090;49.270;8.696;2022-07-11T04:03:20;21.00;99.90
8095;DHT22;4090;49.270;8.696;2022-07-11T04:06:04;21.10;99.90
8095;DHT22;4090;49.270;8.696;2022-07-11T04:08:46;21.00;99.90
8095;DHT22;4090;49.270;8.696;2022-07-11T04:11:28;21.00;99.90
8095;DHT22;4090;49.270;8.696;2022-07-11T04:14:09;21.00;99.90
8095;DHT22;4090;49.270;8.696;2022-07-11T04:16:51;21.00;99.90
8095;DHT22;4090;49.270;8.696;2022-07-11T04:19:33;21.00;99.90
8095;DHT22;4090;49.270;8.696;2022-07-11T04:22:16;21.00;99.90
8095;DHT22;4090;49.270;8.696;2022-07-11T04:24:58;21.00;99.90
8095;DHT22;4090;49.270;8.696;2022-07-11T04:27:40;21.00;99.90
8095;DHT22;4090;49.270;8.696;2022-07-11T04:30:22;21.00;99.90
8095;DHT22;4090;49.270;8.696;2022-07-11T04:33:04;21.00;99.90
8095;DHT22;4090;49.270;8.696;2022-07-11T04:35:45;20.90;99.90
8095;DHT22;4090;49.270;8.696;2022-07-11T04:38:29;21.00;99.90
8095;DHT22;4090;49.270;8.696;2022-07-11T04:41:11;21.00;99.90
8095;DHT22;4090;49.270;8.696;2022-07-11T04:43:52;21.00;99.90
8095;DHT22;4090;49.270;8.696;2022-07-11T04:46:34;21.00;99.90
8095;DHT22;4090;49.270;8.696;2022-07-11T04:49:16;20.90;99.90
8095;DHT22;4090;49.270;8.696;2022-07-11T04:51:59;20.90;99.90
8095;DHT22;4090;49.270;8.696;2022-07-11T04:54:42;21.00;99.90
8095;DHT22;4090;49.270;8.696;2022-07-11T04:57:24;21.00;99.90
8095;DHT22;4090;49.270;8.696;2022-07-11T05:00:07;20.90;99.90
8095;DHT22;4090;49.270;8.696;2022-07-11T05:02:49;20.90;99.90
8095;DHT22;4090;49.270;8.696;2022-07-11T05:05:31;21.00;99.90
8095;DHT22;4090;49.270;8.696;2022-07-11T05:08:13;21.00;99.90
8095;DHT22;4090;49.270;8.696;2022-07-11T05:10:56;20.90;99.90
8095;DHT22;4090;49.270;8.696;2022-07-11T05:13:38;21.00;99.90
8095;DHT22;4090;49.270;8.696;2022-07-11T05:16:20;21.00;99.90
8095;DHT22;4090;49.270;8.696;2022-07-11T05:19:02;21.00;99.90
8095;DHT22;4090;49.270;8.696;2022-07-11T05:21:44;21.10;99.90
8095;DHT22;4090;49.270;8.696;2022-07-11T05:24:26;21.10;99.90
8095;DHT22;4090;49.270;8.696;2022-07-11T05:27:09;21.10;99.90
8095;DHT22;4090;49.270;8.696;2022-07-11T05:29:51;21.10;99.90
8095;DHT22;4090;49.270;8.696;2022-07-11T05:32:33;21.10;99.90
8095;DHT22;4090;49.270;8.696;2022-07-11T05:35:15;21.20;99.90
8095;DHT22;4090;49.270;8.696;2022-07-11T05:37:57;21.20;99.90
8095;DHT22;4090;49.270;8.696;2022-07-11T05:40:39;21.20;99.90
8095;DHT22;4090;49.270;8.696;2022-07-11T05:43:22;21.20;99.90
8095;DHT22;4090;49.270;8.696;2022-07-11T05:46:04;21.20;99.90
8095;DHT22;4090;49.270;8.696;2022-07-11T05:48:46;21.20;99.90
8095;DHT22;4090;49.270;8.696;2022-07-11T05:51:28;21.30;99.90
8095;DHT22;4090;49.270;8.696;2022-07-11T05:54:10;21.30;99.90
8095;DHT22;4090;49.270;8.696;2022-07-11T05:56:52;21.30;99.90
8095;DHT22;4090;49.270;8.696;2022-07-11T05:59:35;21.30;99.90
8095;DHT22;4090;49.270;8.696;2022-07-11T06:02:18;21.30;99.90
8095;DHT22;4090;49.270;8.696;2022-07-11T06:05:00;21.30;99.90
8095;DHT22;4090;49.270;8.696;2022-07-11T06:07:42;21.30;99.90
8095;DHT22;4090;49.270;8.696;2022-07-11T06:10:40;21.30;99.90
8095;DHT22;4090;49.270;8.696;2022-07-11T06:13:22;21.30;99.90
8095;DHT22;4090;49.270;8.696;2022-07-11T06:16:06;21.30;99.90
8095;DHT22;4090;49.270;8.696;2022-07-11T06:18:48;21.40;99.90
8095;DHT22;4090;49.270;8.696;2022-07-11T06:21:31;21.40;99.90
8095;DHT22;4090;49.270;8.696;2022-07-11T06:24:14;21.40;99.90
8095;DHT22;4090;49.270;8.696;2022-07-11T06:26:55;21.40;99.90
8095;DHT22;4090;49.270;8.696;2022-07-11T06:29:41;21.30;99.90
8095;DHT22;4090;49.270;8.696;2022-07-11T06:32:24;21.30;99.90
8095;DHT22;4090;49.270;8.696;2022-07-11T06:35:06;21.40;99.90
8095;DHT22;4090;49.270;8.696;2022-07-11T06:37:49;21.40;99.90
8095;DHT22;4090;49.270;8.696;2022-07-11T06:40:31;21.40;99.90
8095;DHT22;4090;49.270;8.696;2022-07-11T06:43:13;21.40;99.90
8095;DHT22;4090;49.270;8.696;2022-07-11T06:45:55;21.40;99.90
8095;DHT22;4090;49.270;8.696;2022-07-11T06:48:38;21.40;99.90
8095;DHT22;4090;49.270;8.696;2022-07-11T06:51:20;21.40;99.90
8095;DHT22;4090;49.270;8.696;2022-07-11T06:54:02;21.50;99.90
8095;DHT22;4090;49.270;8.696;2022-07-11T06:56:44;21.50;99.90
8095;DHT22;4090;49.270;8.696;2022-07-11T06:59:26;21.50;99.90
8095;DHT22;4090;49.270;8.696;2022-07-11T07:02:08;21.50;99.90
8095;DHT22;4090;49.270;8.696;2022-07-11T07:04:51;21.50;99.90
8095;DHT22;4090;49.270;8.696;2022-07-11T07:07:33;21.60;99.90
8095;DHT22;4090;49.270;8.696;2022-07-11T07:10:15;21.60;99.90
8095;DHT22;4090;49.270;8.696;2022-07-11T07:12:56;21.60;99.90
8095;DHT22;4090;49.270;8.696;2022-07-11T07:15:38;21.60;99.90
8095;DHT22;4090;49.270;8.696;2022-07-11T07:18:20;21.60;99.90
8095;DHT22;4090;49.270;8.696;2022-07-11T07:21:04;21.60;99.90
8095;DHT22;4090;49.270;8.696;2022-07-11T07:23:47;21.60;99.90
8095;DHT22;4090;49.270;8.696;2022-07-11T07:26:28;21.60;99.90
8095;DHT22;4090;49.270;8.696;2022-07-11T07:29:10;21.60;99.90
8095;DHT22;4090;49.270;8.696;2022-07-11T07:31:52;21.60;99.90
8095;DHT22;4090;49.270;8.696;2022-07-11T07:34:34;21.60;99.90
8095;DHT22;4090;49.270;8.696;2022-07-11T07:37:17;21.60;99.90
8095;DHT22;4090;49.270;8.696;2022-07-11T07:39:59;21.60;99.90
8095;DHT22;4090;49.270;8.696;2022-07-11T07:42:41;21.70;99.90
8095;DHT22;4090;49.270;8.696;2022-07-11T07:45:23;21.70;99.90
8095;DHT22;4090;49.270;8.696;2022-07-11T07:48:05;21.70;99.90
8095;DHT22;4090;49.270;8.696;2022-07-11T07:50:47;21.70;99.90
8095;DHT22;4090;49.270;8.696;2022-07-11T07:53:30;21.80;99.90
8095;DHT22;4090;49.270;8.696;2022-07-11T07:56:12;21.80;99.90
8095;DHT22;4090;49.270;8.696;2022-07-11T07:58:54;21.80;99.90
8095;DHT22;4090;49.270;8.696;2022-07-11T08:01:36;21.80;99.90
8095;DHT22;4090;49.270;8.696;2022-07-11T08:04:17;21.80;99.90
8095;DHT22;4090;49.270;8.696;2022-07-11T08:06:59;21.90;99.90
8095;DHT22;4090;49.270;8.696;2022-07-11T08:09:42;21.90;99.90
8095;DHT22;4090;49.270;8.696;2022-07-11T08:12:24;22.00;99.90
8095;DHT22;4090;49.270;8.696;2022-07-11T08:15:07;22.00;99.90
8095;DHT22;4090;49.270;8.696;2022-07-11T08:17:49;22.00;99.90
8095;DHT22;4090;49.270;8.696;2022-07-11T08:20:31;22.00;99.90
8095;DHT22;4090;49.270;8.696;2022-07-11T08:23:12;22.10;99.90
8095;DHT22;4090;49.270;8.696;2022-07-11T08:25:56;22.10;99.90
8095;DHT22;4090;49.270;8.696;2022-07-11T08:28:38;22.20;99.90
8095;DHT22;4090;49.270;8.696;2022-07-11T08:31:20;22.20;99.90
8095;DHT22;4090;49.270;8.696;2022-07-11T08:34:02;22.20;99.90
8095;DHT22;4090;49.270;8.696;2022-07-11T08:36:43;22.30;99.90
8095;DHT22;4090;49.270;8.696;2022-07-11T08:39:25;22.30;99.90
8095;DHT22;4090;49.270;8.696;2022-07-11T08:42:08;22.40;99.90
8095;DHT22;4090;49.270;8.696;2022-07-11T08:44:50;22.40;99.90
8095;DHT22;4090;49.270;8.696;2022-07-11T08:47:33;22.40;99.90
8095;DHT22;4090;49.270;8.696;2022-07-11T08:50:17;22.40;99.90
8095;DHT22;4090;49.270;8.696;2022-07-11T08:53:00;22.50;99.90
8095;DHT22;4090;49.270;8.696;2022-07-11T08:55:44;22.50;99.90
8095;DHT22;4090;49.270;8.696;2022-07-11T08:58:28;22.50;99.90
8095;DHT22;4090;49.270;8.696;2022-07-11T09:01:10;22.60;99.90
8095;DHT22;4090;49.270;8.696;2022-07-11T09:03:53;22.60;99.90
8095;DHT22;4090;49.270;8.696;2022-07-11T09:06:36;22.60;99.80
8095;DHT22;4090;49.270;8.696;2022-07-11T09:09:18;22.70;99.60
8095;DHT22;4090;49.270;8.696;2022-07-11T09:12:00;22.70;99.20
8095;DHT22;4090;49.270;8.696;2022-07-11T09:14:47;22.80;98.90
8095;DHT22;4090;49.270;8.696;2022-07-11T09:17:29;22.80;99.10
8095;DHT22;4090;49.270;8.696;2022-07-11T09:20:11;22.90;98.80
8095;DHT22;4090;49.270;8.696;2022-07-11T09:22:53;22.90;99.30
8095;DHT22;4090;49.270;8.696;2022-07-11T09:25:55;23.00;99.10
8095;DHT22;4090;49.270;8.696;2022-07-11T09:28:36;23.00;99.10
8095;DHT22;4090;49.270;8.696;2022-07-11T09:31:20;23.00;98.00
8095;DHT22;4090;49.270;8.696;2022-07-11T09:34:04;22.90;97.80
8095;DHT22;4090;49.270;8.696;2022-07-11T09:36:47;23.00;97.90
8095;DHT22;4090;49.270;8.696;2022-07-11T09:39:29;23.10;97.70
8095;DHT22;4090;49.270;8.696;2022-07-11T09:42:11;23.10;97.70
8095;DHT22;4090;49.270;8.696;2022-07-11T09:45:10;23.10;97.70
8095;DHT22;4090;49.270;8.696;2022-07-11T09:47:55;23.20;97.70
8095;DHT22;4090;49.270;8.696;2022-07-11T09:50:37;23.20;97.50
8095;DHT22;4090;49.270;8.696;2022-07-11T09:53:19;23.30;97.10
8095;DHT22;4090;49.270;8.696;2022-07-11T09:56:01;23.30;96.60
8095;DHT22;4090;49.270;8.696;2022-07-11T09:58:57;23.30;96.80
8095;DHT22;4090;49.270;8.696;2022-07-11T10:01:40;23.40;97.10
8095;DHT22;4090;49.270;8.696;2022-07-11T10:04:23;23.40;96.70
8095;DHT22;4090;49.270;8.696;2022-07-11T10:07:05;23.50;96.50
8095;DHT22;4090;49.270;8.696;2022-07-11T10:09:46;23.50;96.30
8095;DHT22;4090;49.270;8.696;2022-07-11T10:12:28;23.60;96.20
8095;DHT22;4090;49.270;8.696;2022-07-11T10:15:16;23.70;96.40
8095;DHT22;4090;49.270;8.696;2022-07-11T10:18:07;23.70;96.20
8095;DHT22;4090;49.270;8.696;2022-07-11T10:20:57;23.80;96.50
8095;DHT22;4090;49.270;8.696;2022-07-11T10:23:43;23.80;96.20
8095;DHT22;4090;49.270;8.696;2022-07-11T10:26:35;23.90;96.90
8095;DHT22;4090;49.270;8.696;2022-07-11T10:29:24;23.90;96.40
8095;DHT22;4090;49.270;8.696;2022-07-11T10:32:09;24.00;95.70
8095;DHT22;4090;49.270;8.696;2022-07-11T10:35:08;24.00;95.50
8095;DHT22;4090;49.270;8.696;2022-07-11T10:37:52;24.00;95.50
8095;DHT22;4090;49.270;8.696;2022-07-11T10:40:43;24.10;95.30
8095;DHT22;4090;49.270;8.696;2022-07-11T10:43:36;24.10;95.40
8095;DHT22;4090;49.270;8.696;2022-07-11T10:46:19;24.20;95.70
8095;DHT22;4090;49.270;8.696;2022-07-11T10:49:07;24.20;95.30
8095;DHT22;4090;49.270;8.696;2022-07-11T10:52:04;24.30;94.80
8095;DHT22;4090;49.270;8.696;2022-07-11T10:54:58;24.30;94.80
8095;DHT22;4090;49.270;8.696;2022-07-11T10:57:48;24.40;94.50
8095;DHT22;4090;49.270;8.696;2022-07-11T11:00:32;24.50;94.50
8095;DHT22;4090;49.270;8.696;2022-07-11T11:03:17;24.50;94.00
8095;DHT22;4090;49.270;8.696;2022-07-11T11:05:59;24.60;94.00
8095;DHT22;4090;49.270;8.696;2022-07-11T11:08:42;24.70;93.70
8095;DHT22;4090;49.270;8.696;2022-07-11T11:11:36;24.80;93.60
8095;DHT22;4090;49.270;8.696;2022-07-11T11:14:21;24.80;93.80
8095;DHT22;4090;49.270;8.696;2022-07-11T11:17:36;24.80;93.10
8095;DHT22;4090;49.270;8.696;2022-07-11T11:20:30;24.90;92.80
8095;DHT22;4090;49.270;8.696;2022-07-11T11:23:21;25.00;93.30
8095;DHT22;4090;49.270;8.696;2022-07-11T11:26:05;25.10;92.80
8095;DHT22;4090;49.270;8.696;2022-07-11T11:28:58;25.20;92.60
8095;DHT22;4090;49.270;8.696;2022-07-11T11:31:48;25.30;92.70
8095;DHT22;4090;49.270;8.696;2022-07-11T11:34:33;25.40;92.30
8095;DHT22;4090;49.270;8.696;2022-07-11T11:37:16;25.40;92.00
8095;DHT22;4090;49.270;8.696;2022-07-11T11:39:59;25.50;91.50
8095;DHT22;4090;49.270;8.696;2022-07-11T11:42:41;25.50;91.60
8095;DHT22;4090;49.270;8.696;2022-07-11T11:45:24;25.60;91.40
8095;DHT22;4090;49.270;8.696;2022-07-11T11:48:06;25.50;91.20
8095;DHT22;4090;49.270;8.696;2022-07-11T11:50:49;25.60;91.20
8095;DHT22;4090;49.270;8.696;2022-07-11T11:53:34;25.60;90.80
8095;DHT22;4090;49.270;8.696;2022-07-11T11:56:20;25.60;90.80
8095;DHT22;4090;49.270;8.696;2022-07-11T11:59:04;25.70;90.80
8095;DHT22;4090;49.270;8.696;2022-07-11T12:01:49;25.70;90.80
8095;DHT22;4090;49.270;8.696;2022-07-11T12:04:31;25.80;90.90
8095;DHT22;4090;49.270;8.696;2022-07-11T12:07:13;25.80;90.30
8095;DHT22;4090;49.270;8.696;2022-07-11T12:10:03;25.90;88.90
8095;DHT22;4090;49.270;8.696;2022-07-11T12:12:45;26.00;88.70
8095;DHT22;4090;49.270;8.696;2022-07-11T12:15:31;26.10;88.80
8095;DHT22;4090;49.270;8.696;2022-07-11T12:18:16;26.20;89.00
8095;DHT22;4090;49.270;8.696;2022-07-11T12:21:09;26.30;88.70
8095;DHT22;4090;49.270;8.696;2022-07-11T12:23:51;26.50;87.30
8095;DHT22;4090;49.270;8.696;2022-07-11T12:26:34;26.50;85.40
8095;DHT22;4090;49.270;8.696;2022-07-11T12:29:18;26.60;86.00
8095;DHT22;4090;49.270;8.696;2022-07-11T12:32:10;26.60;86.40
8095;DHT22;4090;49.270;8.696;2022-07-11T12:34:54;26.60;85.20
8095;DHT22;4090;49.270;8.696;2022-07-11T12:37:37;26.60;85.00
8095;DHT22;4090;49.270;8.696;2022-07-11T12:40:19;26.70;85.60
8095;DHT22;4090;49.270;8.696;2022-07-11T12:43:02;26.60;85.30
8095;DHT22;4090;49.270;8.696;2022-07-11T12:46:04;26.60;85.70
8095;DHT22;4090;49.270;8.696;2022-07-11T12:48:45;26.70;85.40
8095;DHT22;4090;49.270;8.696;2022-07-11T12:51:29;26.70;85.10
8095;DHT22;4090;49.270;8.696;2022-07-11T12:54:13;26.70;85.00
8095;DHT22;4090;49.270;8.696;2022-07-11T12:56:56;26.70;84.70
8095;DHT22;4090;49.270;8.696;2022-07-11T12:59:39;26.70;84.00
8095;DHT22;4090;49.270;8.696;2022-07-11T13:02:25;26.70;84.60
8095;DHT22;4090;49.270;8.696;2022-07-11T13:05:08;26.70;84.60
8095;DHT22;4090;49.270;8.696;2022-07-11T13:07:51;26.80;84.60
8095;DHT22;4090;49.270;8.696;2022-07-11T13:10:50;26.80;84.00
8095;DHT22;4090;49.270;8.696;2022-07-11T13:13:33;26.80;85.10
8095;DHT22;4090;49.270;8.696;2022-07-11T13:16:16;26.90;85.00
8095;DHT22;4090;49.270;8.696;2022-07-11T13:18:58;26.90;84.80
8095;DHT22;4090;49.270;8.696;2022-07-11T13:21:40;27.00;84.90
8095;DHT22;4090;49.270;8.696;2022-07-11T13:24:23;27.10;84.10
8095;DHT22;4090;49.270;8.696;2022-07-11T13:27:06;27.10;83.90
8095;DHT22;4090;49.270;8.696;2022-07-11T13:29:48;27.20;83.30
8095;DHT22;4090;49.270;8.696;2022-07-11T13:32:30;27.20;83.70
8095;DHT22;4090;49.270;8.696;2022-07-11T13:35:12;27.20;83.10
8095;DHT22;4090;49.270;8.696;2022-07-11T13:37:54;27.20;83.70
8095;DHT22;4090;49.270;8.696;2022-07-11T13:40:38;27.30;83.90
8095;DHT22;4090;49.270;8.696;2022-07-11T13:43:19;27.30;83.80
8095;DHT22;4090;49.270;8.696;2022-07-11T13:46:01;27.30;82.70
8095;DHT22;4090;49.270;8.696;2022-07-11T13:48:43;27.40;82.60
8095;DHT22;4090;49.270;8.696;2022-07-11T13:51:26;27.40;82.90
8095;DHT22;4090;49.270;8.696;2022-07-11T13:54:08;27.50;82.70
8095;DHT22;4090;49.270;8.696;2022-07-11T13:56:51;27.50;83.30
8095;DHT22;4090;49.270;8.696;2022-07-11T13:59:33;27.50;82.70
8095;DHT22;4090;49.270;8.696;2022-07-11T14:02:16;27.50;81.40
8095;DHT22;4090;49.270;8.696;2022-07-11T14:04:58;27.50;82.70
8095;DHT22;4090;49.270;8.696;2022-07-11T14:07:40;27.50;82.00
8095;DHT22;4090;49.270;8.696;2022-07-11T14:10:22;27.60;81.80
8095;DHT22;4090;49.270;8.696;2022-07-11T14:13:06;27.60;81.90
8095;DHT22;4090;49.270;8.696;2022-07-11T14:15:48;27.70;81.50
8095;DHT22;4090;49.270;8.696;2022-07-11T14:18:30;27.80;81.90
8095;DHT22;4090;49.270;8.696;2022-07-11T14:21:12;27.90;81.50
8095;DHT22;4090;49.270;8.696;2022-07-11T14:23:54;28.00;80.50
8095;DHT22;4090;49.270;8.696;2022-07-11T14:26:37;28.10;79.10
8095;DHT22;4090;49.270;8.696;2022-07-11T14:29:20;28.20;78.60
8095;DHT22;4090;49.270;8.696;2022-07-11T14:32:03;28.20;77.60
8095;DHT22;4090;49.270;8.696;2022-07-11T14:34:45;28.40;77.50
8095;DHT22;4090;49.270;8.696;2022-07-11T14:37:27;28.50;78.50
8095;DHT22;4090;49.270;8.696;2022-07-11T14:40:10;28.70;76.30
8095;DHT22;4090;49.270;8.696;2022-07-11T14:42:52;28.70;73.50
8095;DHT22;4090;49.270;8.696;2022-07-11T14:45:35;28.80;74.10
8095;DHT22;4090;49.270;8.696;2022-07-11T14:48:17;28.80;74.50
8095;DHT22;4090;49.270;8.696;2022-07-11T14:50:59;28.70;73.40
8095;DHT22;4090;49.270;8.696;2022-07-11T14:53:41;28.70;74.50
8095;DHT22;4090;49.270;8.696;2022-07-11T14:56:23;28.70;76.10
8095;DHT22;4090;49.270;8.696;2022-07-11T14:59:05;28.70;76.70
8095;DHT22;4090;49.270;8.696;2022-07-11T15:01:48;28.70;76.90
8095;DHT22;4090;49.270;8.696;2022-07-11T15:04:30;28.70;75.40
8095;DHT22;4090;49.270;8.696;2022-07-11T15:07:12;28.70;75.10
8095;DHT22;4090;49.270;8.696;2022-07-11T15:10:11;28.80;75.60
8095;DHT22;4090;49.270;8.696;2022-07-11T15:13:11;28.70;74.00
8095;DHT22;4090;49.270;8.696;2022-07-11T15:15:53;28.80;75.30
8095;DHT22;4090;49.270;8.696;2022-07-11T15:18:36;28.80;76.10
8095;DHT22;4090;49.270;8.696;2022-07-11T15:21:18;28.80;75.80
8095;DHT22;4090;49.270;8.696;2022-07-11T15:24:00;28.80;76.60
8095;DHT22;4090;49.270;8.696;2022-07-11T15:26:42;28.80;76.30
8095;DHT22;4090;49.270;8.696;2022-07-11T15:29:24;28.80;76.70
8095;DHT22;4090;49.270;8.696;2022-07-11T15:32:07;28.80;76.70
8095;DHT22;4090;49.270;8.696;2022-07-11T15:34:50;28.80;76.30
8095;DHT22;4090;49.270;8.696;2022-07-11T15:37:32;28.80;76.20
8095;DHT22;4090;49.270;8.696;2022-07-11T15:40:14;28.80;75.70
8095;DHT22;4090;49.270;8.696;2022-07-11T15:42:56;28.80;76.60
8095;DHT22;4090;49.270;8.696;2022-07-11T15:45:38;28.70;77.10
8095;DHT22;4090;49.270;8.696;2022-07-11T15:48:20;28.70;77.70
8095;DHT22;4090;49.270;8.696;2022-07-11T15:51:04;28.60;76.70
8095;DHT22;4090;49.270;8.696;2022-07-11T15:53:46;28.60;78.50
8095;DHT22;4090;49.270;8.696;2022-07-11T15:56:28;28.50;76.90
8095;DHT22;4090;49.270;8.696;2022-07-11T15:59:10;28.50;75.30
8095;DHT22;4090;49.270;8.696;2022-07-11T16:01:52;28.40;74.00
8095;DHT22;4090;49.270;8.696;2022-07-11T16:04:34;28.40;74.10
8095;DHT22;4090;49.270;8.696;2022-07-11T16:07:17;28.40;75.40
8095;DHT22;4090;49.270;8.696;2022-07-11T16:09:59;28.40;76.40
8095;DHT22;4090;49.270;8.696;2022-07-11T16:12:43;28.30;77.10
8095;DHT22;4090;49.270;8.696;2022-07-11T16:15:25;28.30;77.40
8095;DHT22;4090;49.270;8.696;2022-07-11T16:18:07;28.20;76.70
8095;DHT22;4090;49.270;8.696;2022-07-11T16:20:50;28.20;77.80
8095;DHT22;4090;49.270;8.696;2022-07-11T16:23:33;28.10;77.60
8095;DHT22;4090;49.270;8.696;2022-07-11T16:26:15;28.10;78.30
8095;DHT22;4090;49.270;8.696;2022-07-11T16:28:57;28.00;78.10
8095;DHT22;4090;49.270;8.696;2022-07-11T16:31:39;28.00;78.70
8095;DHT22;4090;49.270;8.696;2022-07-11T16:34:20;27.90;78.70
8095;DHT22;4090;49.270;8.696;2022-07-11T16:37:03;27.90;78.40
8095;DHT22;4090;49.270;8.696;2022-07-11T16:39:47;27.90;78.50
8095;DHT22;4090;49.270;8.696;2022-07-11T16:42:46;27.80;79.30
8095;DHT22;4090;49.270;8.696;2022-07-11T16:45:45;27.80;79.40
8095;DHT22;4090;49.270;8.696;2022-07-11T16:48:30;27.70;80.00
8095;DHT22;4090;49.270;8.696;2022-07-11T16:51:13;27.70;80.40
8095;DHT22;4090;49.270;8.696;2022-07-11T16:53:56;27.70;80.00
8095;DHT22;4090;49.270;8.696;2022-07-11T16:56:40;27.70;81.00
8095;DHT22;4090;49.270;8.696;2022-07-11T16:59:22;27.70;82.30
8095;DHT22;4090;49.270;8.696;2022-07-11T17:02:04;27.60;80.70
8095;DHT22;4090;49.270;8.696;2022-07-11T17:04:48;27.60;81.90
8095;DHT22;4090;49.270;8.696;2022-07-11T17:07:31;27.60;81.60
8095;DHT22;4090;49.270;8.696;2022-07-11T17:10:13;27.60;84.60
8095;DHT22;4090;49.270;8.696;2022-07-11T17:12:56;27.50;83.50
8095;DHT22;4090;49.270;8.696;2022-07-11T17:15:38;27.50;81.70
8095;DHT22;4090;49.270;8.696;2022-07-11T17:18:20;27.50;80.50
8095;DHT22;4090;49.270;8.696;2022-07-11T17:21:03;27.50;81.00
8095;DHT22;4090;49.270;8.696;2022-07-11T17:23:45;27.50;82.00
8095;DHT22;4090;49.270;8.696;2022-07-11T17:26:28;27.50;80.60
8095;DHT22;4090;49.270;8.696;2022-07-11T17:29:12;27.50;79.10
8095;DHT22;4090;49.270;8.696;2022-07-11T17:31:54;27.60;79.00
8095;DHT22;4090;49.270;8.696;2022-07-11T17:34:36;27.60;80.20
8095;DHT22;4090;49.270;8.696;2022-07-11T17:37:17;27.60;79.10
8095;DHT22;4090;49.270;8.696;2022-07-11T17:40:00;27.60;77.50
8095;DHT22;4090;49.270;8.696;2022-07-11T17:42:43;27.70;77.10
8095;DHT22;4090;49.270;8.696;2022-07-11T17:45:26;27.70;77.40
8095;DHT22;4090;49.270;8.696;2022-07-11T17:48:09;27.70;76.10